createdAt,value
2018-09-08T00:00:33.096Z,14.17
2018-09-08T00:01:33.066Z,14.19
2018-09-08T00:02:33.056Z,14.31
2018-09-08T00:03:33.062Z,14.23
2018-09-08T00:04:33.033Z,14.24
2018-09-08T00:05:33.091Z,14.36
2018-09-08T00:06:33.014Z,14.36
2018-09-08T00:07:33.001Z,14.44
2018-09-08T00:08:33.004Z,14.41
2018-09-08T00:09:32.984Z,14.41
2018-09-08T00:10:32.979Z,14.46
2018-09-08T00:11:33.005Z,14.49
2018-09-08T00:12:32.972Z,14.53
2018-09-08T00:13:32.979Z,14.56
2018-09-08T00:14:32.929Z,14.54
2018-09-08T00:15:32.912Z,14.52
2018-09-08T00:16:32.902Z,14.48
2018-09-08T00:17:32.942Z,14.49
2018-09-08T00:18:32.894Z,14.52
2018-09-08T00:19:32.868Z,14.52
2018-09-08T00:20:32.878Z,14.46
2018-09-08T00:21:32.851Z,14.45
2018-09-08T00:22:32.836Z,14.41
2018-09-08T00:23:32.887Z,14.35
2018-09-08T00:24:32.812Z,14.52
2018-09-08T00:25:32.803Z,14.46
2018-09-08T00:26:32.796Z,14.41
2018-09-08T00:27:32.794Z,14.35
2018-09-08T00:28:32.791Z,14.34
2018-09-08T00:29:32.918Z,14.41
2018-09-08T00:30:32.745Z,14.39
2018-09-08T00:31:32.733Z,14.35
2018-09-08T00:32:33.683Z,14.44
2018-09-08T00:33:32.716Z,14.38
2018-09-08T00:34:32.719Z,14.38
2018-09-08T00:35:32.763Z,14.23
2018-09-08T00:36:32.680Z,14.24
2018-09-08T00:37:32.672Z,14.30
2018-09-08T00:38:32.719Z,14.24
2018-09-08T00:39:32.669Z,14.12
2018-09-08T00:40:32.635Z,14.11
2018-09-08T00:41:32.670Z,14.08
2018-09-08T00:42:32.612Z,14.11
2018-09-08T00:43:32.600Z,14.11
2018-09-08T00:44:32.603Z,13.98
2018-09-08T00:45:32.581Z,14.05
2018-09-08T00:46:32.575Z,13.94
2018-09-08T00:47:32.597Z,13.93
2018-09-08T00:48:32.549Z,13.96
2018-09-08T00:49:32.552Z,13.90
2018-09-08T00:50:32.530Z,13.79
2018-09-08T00:51:32.516Z,13.79
2018-09-08T00:52:32.507Z,13.66
2018-09-08T00:53:32.536Z,13.69
2018-09-08T00:54:32.493Z,13.59
2018-09-08T00:55:32.475Z,13.68
2018-09-08T00:56:32.472Z,13.57
2018-09-08T00:57:32.444Z,13.65
2018-09-08T00:58:32.439Z,13.53
2018-09-08T00:59:32.493Z,13.55
2018-09-08T01:00:32.422Z,13.55
2018-09-08T01:01:32.407Z,13.54
2018-09-08T01:02:32.398Z,13.51
2018-09-08T01:03:32.382Z,13.59
2018-09-08T01:04:32.393Z,13.62
2018-09-08T01:05:32.365Z,13.63
2018-09-08T01:06:32.396Z,13.50
2018-09-08T01:07:32.337Z,13.54
2018-09-08T01:08:32.328Z,13.61
2018-09-08T01:09:32.332Z,13.59
2018-09-08T01:10:32.307Z,13.66
2018-09-08T01:11:32.295Z,13.55
2018-09-08T01:12:32.317Z,13.73
2018-09-08T01:13:32.273Z,13.62
2018-09-08T01:14:32.336Z,13.71
2018-09-08T01:15:32.253Z,13.65
2018-09-08T01:16:32.245Z,13.69
2018-09-08T01:17:32.234Z,13.68
2018-09-08T01:18:32.281Z,13.73
2018-09-08T01:19:32.222Z,13.68
2018-09-08T01:20:32.196Z,13.73
2018-09-08T01:21:32.191Z,13.71
2018-09-08T01:22:32.182Z,13.76
2018-09-08T01:23:32.166Z,13.75
2018-09-08T01:24:32.238Z,13.69
2018-09-08T01:25:32.147Z,13.76
2018-09-08T01:26:32.134Z,13.66
2018-09-08T01:27:32.122Z,13.69
2018-09-08T01:28:32.112Z,13.65
2018-09-08T01:29:32.114Z,13.69
2018-09-08T01:30:32.236Z,13.68
2018-09-08T01:31:32.081Z,13.68
2018-09-08T01:32:32.075Z,13.72
2018-09-08T01:33:32.057Z,13.63
2018-09-08T01:34:32.927Z,13.69
2018-09-08T01:35:32.036Z,13.61
2018-09-08T01:36:32.022Z,13.66
2018-09-08T01:37:32.019Z,13.53
2018-09-08T01:38:32.049Z,13.46
2018-09-08T01:39:32.015Z,13.51
2018-09-08T01:40:31.989Z,13.55
2018-09-08T01:41:32.048Z,13.55
2018-09-08T01:42:31.963Z,13.68
2018-09-08T01:43:31.945Z,13.65
2018-09-08T01:44:31.959Z,13.59
2018-09-08T01:45:31.930Z,13.61
2018-09-08T01:46:31.965Z,13.61
2018-09-08T01:47:31.910Z,13.57
2018-09-08T01:48:31.900Z,13.62
2018-09-08T01:49:31.896Z,13.63
2018-09-08T01:50:31.874Z,13.62
2018-09-08T01:51:31.864Z,13.57
2018-09-08T01:52:31.908Z,13.53
2018-09-08T01:53:31.842Z,13.38
2018-09-08T01:54:31.843Z,13.44
2018-09-08T01:55:31.823Z,13.24
2018-09-08T01:56:31.812Z,13.28
2018-09-08T01:57:31.799Z,13.22
2018-09-08T01:58:31.825Z,13.17
2018-09-08T01:59:31.820Z,13.10
2018-09-08T02:00:31.769Z,12.96
2018-09-08T02:01:31.756Z,13.01
2018-09-08T02:02:31.749Z,12.87
2018-09-08T02:03:31.734Z,12.84
2018-09-08T02:04:31.770Z,12.94
2018-09-08T02:05:31.714Z,12.85
2018-09-08T02:06:31.704Z,12.87
2018-09-08T02:07:31.694Z,12.95
2018-09-08T02:08:31.678Z,12.87
2018-09-08T02:09:31.884Z,12.91
2018-09-08T02:10:31.661Z,12.91
2018-09-08T02:11:31.657Z,12.92
2018-09-08T02:12:31.637Z,12.99
2018-09-08T02:13:31.632Z,13.10
2018-09-08T02:14:31.632Z,13.17
2018-09-08T02:15:31.649Z,13.29
2018-09-08T02:16:31.592Z,13.43
2018-09-08T02:17:31.583Z,13.39
2018-09-08T02:18:31.571Z,13.53
2018-09-08T02:19:31.589Z,13.54
2018-09-08T02:20:31.553Z,13.61
2018-09-08T02:21:31.579Z,13.61
2018-09-08T02:22:31.531Z,13.68
2018-09-08T02:23:31.521Z,13.66
2018-09-08T02:24:31.526Z,13.55
2018-09-08T02:25:31.565Z,13.57
2018-09-08T02:26:31.493Z,13.63
2018-09-08T02:27:31.492Z,13.66
2018-09-08T02:28:31.534Z,13.61
2018-09-08T02:29:31.476Z,13.63
2018-09-08T02:30:31.440Z,13.68
2018-09-08T02:31:31.435Z,13.55
2018-09-08T02:32:31.422Z,13.55
2018-09-08T02:33:31.413Z,13.55
2018-09-08T02:34:31.456Z,13.62
2018-09-08T02:35:31.390Z,13.59
2018-09-08T02:36:31.383Z,13.63
2018-09-08T02:37:31.374Z,13.65
2018-09-08T02:38:31.356Z,13.71
2018-09-08T02:39:31.368Z,13.65
2018-09-08T02:40:31.395Z,13.66
2018-09-08T02:41:31.326Z,13.71
2018-09-08T02:42:31.316Z,13.63
2018-09-08T02:43:31.304Z,13.66
2018-09-08T02:44:31.309Z,13.65
2018-09-08T02:45:31.282Z,13.63
2018-09-08T02:46:31.296Z,13.66
2018-09-08T02:47:31.268Z,13.69
2018-09-08T02:48:31.256Z,13.59
2018-09-08T02:49:31.267Z,13.72
2018-09-08T02:50:31.225Z,13.66
2018-09-08T02:51:31.266Z,13.65
2018-09-08T02:52:31.244Z,13.65
2018-09-08T02:53:31.194Z,13.75
2018-09-08T02:54:31.200Z,13.63
2018-09-08T02:55:31.186Z,13.62
2018-09-08T02:56:31.159Z,13.57
2018-09-08T02:57:31.151Z,13.65
2018-09-08T02:58:31.178Z,13.53
2018-09-08T02:59:31.126Z,13.53
2018-09-08T03:00:31.140Z,13.54
2018-09-08T03:01:31.112Z,13.53
2018-09-08T03:02:31.099Z,13.62
2018-09-08T03:03:31.087Z,13.59
2018-09-08T03:04:31.120Z,13.69
2018-09-08T03:05:31.081Z,13.79
2018-09-08T03:06:31.054Z,13.91
2018-09-08T03:07:31.043Z,13.93
2018-09-08T03:08:31.030Z,13.88
2018-09-08T03:09:31.021Z,13.98
2018-09-08T03:10:31.068Z,14.01
2018-09-08T03:11:31.000Z,14.06
2018-09-08T03:12:30.987Z,13.98
2018-09-08T03:13:30.983Z,14.11
2018-09-08T03:14:30.970Z,14.08
2018-09-08T03:15:30.971Z,14.12
2018-09-08T03:16:30.997Z,14.19
2018-09-08T03:17:30.932Z,14.21
2018-09-08T03:18:30.928Z,14.24
2018-09-08T03:19:30.916Z,14.23
2018-09-08T03:20:30.915Z,14.27
2018-09-08T03:21:30.891Z,14.23
2018-09-08T03:22:30.917Z,14.21
2018-09-08T03:23:30.872Z,14.01
2018-09-08T03:24:30.867Z,13.90
2018-09-08T03:25:30.859Z,13.91
2018-09-08T03:26:30.840Z,13.88
2018-09-08T03:27:30.827Z,13.79
2018-09-08T03:28:30.861Z,13.65
2018-09-08T03:29:30.804Z,13.54
2018-09-08T03:30:30.821Z,13.39
2018-09-08T03:31:30.794Z,13.27
2018-09-08T03:32:30.782Z,13.19
2018-09-08T03:33:30.762Z,13.17
2018-09-08T03:34:30.792Z,13.03
2018-09-08T03:35:30.737Z,12.98
2018-09-08T03:36:30.801Z,12.98
2018-09-08T03:37:30.718Z,12.89
2018-09-08T03:38:30.708Z,12.77
2018-09-08T03:39:30.736Z,12.74
2018-09-08T03:40:30.682Z,12.71
2018-09-08T03:41:30.686Z,12.71
2018-09-08T03:42:30.663Z,12.73
2018-09-08T03:43:30.654Z,12.66
2018-09-08T03:44:30.638Z,12.85
2018-09-08T03:45:30.662Z,12.94
2018-09-08T03:46:30.634Z,13.16
2018-09-08T03:47:30.613Z,13.27
2018-09-08T03:48:30.612Z,13.47
2018-09-08T03:49:30.583Z,13.36
2018-09-08T03:50:30.573Z,13.43
2018-09-08T03:51:30.629Z,13.38
2018-09-08T03:52:30.552Z,13.39
2018-09-08T03:53:30.544Z,13.43
2018-09-08T03:54:30.530Z,13.39
2018-09-08T03:55:30.525Z,13.38
2018-09-08T03:56:30.536Z,13.44
2018-09-08T03:57:30.529Z,13.41
2018-09-08T03:58:30.490Z,13.24
2018-09-08T03:59:30.484Z,13.14
2018-09-08T04:00:30.465Z,13.04
2018-09-08T04:01:30.455Z,12.95
2018-09-08T04:02:30.467Z,12.87
2018-09-08T04:03:30.517Z,12.76
2018-09-08T04:04:30.426Z,12.67
2018-09-08T04:05:30.460Z,12.56
2018-09-08T04:06:30.405Z,12.63
2018-09-08T04:07:30.412Z,12.55
2018-09-08T04:08:30.385Z,12.40
2018-09-08T04:09:30.406Z,12.29
2018-09-08T04:10:30.362Z,12.16
2018-09-08T04:11:30.348Z,12.03
2018-09-08T04:12:30.388Z,11.77
2018-09-08T04:13:30.326Z,11.84
2018-09-08T04:14:30.314Z,11.74
2018-09-08T04:15:30.389Z,11.75
2018-09-08T04:16:30.296Z,11.69
2018-09-08T04:17:30.294Z,11.77
2018-09-08T04:18:30.312Z,11.69
2018-09-08T04:19:30.257Z,11.67
2018-09-08T04:20:30.250Z,11.87
2018-09-08T04:21:30.260Z,11.82
2018-09-08T04:22:30.239Z,11.77
2018-09-08T04:23:30.218Z,11.82
2018-09-08T04:24:30.207Z,11.78
2018-09-08T04:25:30.194Z,11.85
2018-09-08T04:26:30.183Z,11.88
2018-09-08T04:27:30.251Z,11.90
2018-09-08T04:28:30.163Z,11.82
2018-09-08T04:29:30.184Z,11.77
2018-09-08T04:30:30.140Z,11.66
2018-09-08T04:31:30.130Z,11.67
2018-09-08T04:32:30.131Z,11.60
2018-09-08T04:33:30.134Z,11.57
2018-09-08T04:34:30.096Z,11.46
2018-09-08T04:35:30.083Z,11.44
2018-09-08T04:36:30.073Z,11.44
2018-09-08T04:37:30.078Z,11.41
2018-09-08T04:38:30.054Z,11.41
2018-09-08T04:39:30.082Z,11.27
2018-09-08T04:40:30.031Z,11.33
2018-09-08T04:41:30.021Z,11.28
2018-09-08T04:42:30.030Z,11.41
2018-09-08T04:43:29.997Z,11.57
2018-09-08T04:44:29.995Z,11.66
2018-09-08T04:45:30.012Z,11.74
2018-09-08T04:46:29.965Z,11.81
2018-09-08T04:47:29.969Z,11.90
2018-09-08T04:48:29.942Z,12.00
2018-09-08T04:49:29.929Z,11.98
2018-09-08T04:50:29.924Z,12.16
2018-09-08T04:51:30.020Z,12.23
2018-09-08T04:52:29.918Z,12.40
2018-09-08T04:53:29.887Z,12.48
2018-09-08T04:54:29.928Z,12.55
2018-09-08T04:55:29.870Z,12.55
2018-09-08T04:56:29.857Z,12.69
2018-09-08T04:57:29.931Z,12.76
2018-09-08T04:58:29.836Z,12.87
2018-09-08T04:59:29.826Z,13.04
2018-09-08T05:00:29.815Z,12.92
2018-09-08T05:01:29.805Z,12.96
2018-09-08T05:02:29.803Z,13.09
2018-09-08T05:03:29.833Z,13.12
2018-09-08T05:04:29.771Z,13.21
2018-09-08T05:05:29.758Z,13.22
2018-09-08T05:06:29.779Z,13.27
2018-09-08T05:07:29.739Z,13.25
2018-09-08T05:08:29.740Z,13.14
2018-09-08T05:09:29.748Z,13.14
2018-09-08T05:10:29.759Z,13.09
2018-09-08T05:11:29.694Z,13.10
2018-09-08T05:12:29.681Z,13.14
2018-09-08T05:13:29.732Z,13.17
2018-09-08T05:14:29.688Z,13.22
2018-09-08T05:15:29.648Z,13.19
2018-09-08T05:16:29.641Z,13.17
2018-09-08T05:17:29.630Z,13.17
2018-09-08T05:18:29.645Z,13.14
2018-09-08T05:19:29.602Z,13.19
2018-09-08T05:20:29.627Z,13.21
2018-09-08T05:21:29.584Z,13.22
2018-09-08T05:22:29.572Z,13.10
2018-09-08T05:23:29.582Z,13.19
2018-09-08T05:24:29.549Z,13.13
2018-09-08T05:25:29.538Z,13.19
2018-09-08T05:26:29.556Z,13.25
2018-09-08T05:27:29.513Z,13.22
2018-09-08T05:28:29.556Z,13.21
2018-09-08T05:29:29.497Z,13.12
2018-09-08T05:30:29.483Z,13.16
2018-09-08T05:31:29.473Z,13.14
2018-09-08T05:32:29.478Z,13.17
2018-09-08T05:33:29.473Z,13.19
2018-09-08T05:34:29.437Z,13.31
2018-09-08T05:35:29.428Z,13.31
2018-09-08T05:36:29.457Z,13.29
2018-09-08T05:37:29.403Z,13.31
2018-09-08T05:38:29.464Z,13.28
2018-09-08T05:39:29.379Z,13.38
2018-09-08T05:40:29.368Z,13.39
2018-09-08T05:41:29.362Z,13.38
2018-09-08T05:42:29.348Z,13.57
2018-09-08T05:43:29.355Z,13.51
2018-09-08T05:44:29.353Z,13.63
2018-09-08T05:45:29.315Z,13.66
2018-09-08T05:46:29.301Z,13.63
2018-09-08T05:47:29.291Z,13.66
2018-09-08T05:48:29.301Z,13.68
2018-09-08T05:49:29.269Z,13.71
2018-09-08T05:50:29.293Z,13.68
2018-09-08T05:51:29.249Z,13.79
2018-09-08T05:52:29.273Z,13.71
2018-09-08T05:53:29.238Z,13.69
2018-09-08T05:54:29.216Z,13.65
2018-09-08T05:55:29.319Z,13.57
2018-09-08T05:56:29.217Z,13.59
2018-09-08T05:57:29.180Z,13.66
2018-09-08T05:58:29.238Z,13.55
2018-09-08T05:59:29.160Z,13.68
2018-09-08T06:00:29.151Z,13.51
2018-09-08T06:01:29.138Z,13.51
2018-09-08T06:02:29.153Z,13.79
2018-09-08T06:03:29.131Z,14.26
2018-09-08T06:04:29.109Z,14.21
2018-09-08T06:05:29.103Z,14.08
2018-09-08T06:06:29.084Z,14.26
2018-09-08T06:07:29.071Z,14.29
2018-09-08T06:08:29.123Z,14.24
2018-09-08T06:09:29.057Z,14.06
2018-09-08T06:10:29.045Z,13.96
2018-09-08T06:11:29.031Z,13.94
2018-09-08T06:12:29.023Z,13.88
2018-09-08T06:13:29.028Z,13.72
2018-09-08T06:14:29.025Z,13.71
2018-09-08T06:15:28.987Z,13.76
2018-09-08T06:16:28.976Z,13.90
2018-09-08T06:17:29.010Z,14.78
2018-09-08T06:18:29.016Z,15.52
2018-09-08T06:19:28.981Z,16.01
2018-09-08T06:20:28.970Z,16.10
2018-09-08T06:21:28.919Z,16.54
2018-09-08T06:22:28.913Z,16.51
2018-09-08T06:23:28.917Z,16.67
2018-09-08T06:24:29.002Z,16.87
2018-09-08T06:25:28.925Z,16.69
2018-09-08T06:26:28.895Z,16.78
2018-09-08T06:27:28.862Z,16.27
2018-09-08T06:28:28.991Z,16.03
2018-09-08T06:29:28.834Z,15.64
2018-09-08T06:30:28.825Z,15.38
2018-09-08T06:31:28.861Z,15.22
2018-09-08T06:32:28.837Z,15.13
2018-09-08T06:33:28.854Z,14.97
2018-09-08T06:34:28.809Z,14.75
2018-09-08T06:35:28.811Z,14.83
2018-09-08T06:36:28.754Z,15.07
2018-09-08T06:37:28.747Z,15.16
2018-09-08T06:38:28.775Z,15.13
2018-09-08T06:39:28.721Z,15.66
2018-09-08T06:40:28.710Z,15.62
2018-09-08T06:41:28.699Z,15.38
2018-09-08T06:42:28.688Z,15.30
2018-09-08T06:43:28.691Z,15.31
2018-09-08T06:44:28.674Z,15.28
2018-09-08T06:45:28.683Z,15.25
2018-09-08T06:46:28.649Z,15.30
2018-09-08T06:47:28.703Z,15.30
2018-09-08T06:48:28.666Z,15.34
2018-09-08T06:49:28.617Z,15.35
2018-09-08T06:50:28.631Z,15.53
2018-09-08T06:51:28.592Z,15.40
2018-09-08T06:52:28.578Z,15.56
2018-09-08T06:53:28.599Z,15.60
2018-09-08T06:54:28.574Z,16.06
2018-09-08T06:55:28.575Z,16.07
2018-09-08T06:56:28.559Z,17.20
2018-09-08T06:57:28.523Z,18.26
2018-09-08T06:58:28.527Z,18.91
2018-09-08T06:59:28.501Z,19.52
2018-09-08T07:00:28.525Z,20.30
2018-09-08T07:01:28.502Z,20.78
2018-09-08T07:02:28.498Z,20.90
2018-09-08T07:03:28.493Z,20.85
2018-09-08T07:04:28.445Z,21.31
2018-09-08T07:05:28.437Z,21.56
2018-09-08T07:06:28.426Z,21.68
2018-09-08T07:07:28.416Z,21.74
2018-09-08T07:08:28.431Z,21.82
2018-09-08T07:09:28.415Z,21.82
2018-09-08T07:10:28.397Z,20.96
2018-09-08T07:11:28.369Z,20.60
2018-09-08T07:12:28.363Z,19.68
2018-09-08T07:13:28.802Z,19.27
2018-09-08T07:14:28.336Z,19.64
2018-09-08T07:15:28.326Z,20.78
2018-09-08T07:16:28.345Z,21.30
2018-09-08T07:17:28.323Z,21.43
2018-09-08T07:18:28.307Z,20.87
2018-09-08T07:19:28.282Z,19.98
2018-09-08T07:20:28.272Z,19.75
2018-09-08T07:21:28.261Z,20.27
2018-09-08T07:22:28.249Z,20.91
2018-09-08T07:23:28.287Z,21.45
2018-09-08T07:24:28.237Z,21.71
2018-09-08T07:25:28.226Z,22.17
2018-09-08T07:26:28.222Z,22.45
2018-09-08T07:27:28.195Z,22.41
2018-09-08T07:28:28.196Z,22.36
2018-09-08T07:29:28.173Z,22.33
2018-09-08T07:30:28.161Z,21.82
2018-09-08T07:31:28.151Z,21.37
2018-09-08T07:32:28.156Z,21.40
2018-09-08T07:33:28.155Z,21.61
2018-09-08T07:34:28.140Z,22.11
2018-09-08T07:35:28.128Z,22.52
2018-09-08T07:36:28.123Z,22.08
2018-09-08T07:37:28.166Z,21.98
2018-09-08T07:38:28.110Z,22.30
2018-09-08T07:39:28.072Z,22.67
2018-09-08T07:40:28.124Z,23.09
2018-09-08T07:41:28.062Z,23.11
2018-09-08T07:42:28.059Z,22.84
2018-09-08T07:43:28.140Z,23.14
2018-09-08T07:44:28.043Z,23.25
2018-09-08T07:45:28.013Z,23.31
2018-09-08T07:46:27.994Z,23.38
2018-09-08T07:47:28.059Z,22.91
2018-09-08T07:48:28.024Z,22.75
2018-09-08T07:49:28.038Z,23.09
2018-09-08T07:50:27.944Z,23.22
2018-09-08T07:51:27.947Z,22.74
2018-09-08T07:52:27.940Z,22.88
2018-09-08T07:53:27.961Z,23.07
2018-09-08T07:54:27.949Z,23.49
2018-09-08T07:55:27.975Z,23.99
2018-09-08T07:56:27.877Z,24.19
2018-09-08T07:57:27.876Z,24.12
2018-09-08T07:58:27.942Z,24.33
2018-09-08T07:59:27.958Z,24.42
2018-09-08T08:00:27.846Z,23.99
2018-09-08T08:01:27.839Z,24.02
2018-09-08T08:02:27.842Z,24.14
2018-09-08T08:03:27.818Z,24.30
2018-09-08T08:04:27.833Z,24.52
2018-09-08T08:05:27.780Z,24.68
2018-09-08T08:06:27.788Z,24.21
2018-09-08T08:07:27.761Z,23.68
2018-09-08T08:08:27.786Z,23.84
2018-09-08T08:09:27.780Z,24.34
2018-09-08T08:10:27.727Z,24.34
2018-09-08T08:11:27.733Z,23.84
2018-09-08T08:12:27.704Z,23.62
2018-09-08T08:13:27.691Z,23.79
2018-09-08T08:14:27.730Z,23.97
2018-09-08T08:15:27.674Z,24.12
2018-09-08T08:16:27.660Z,23.49
2018-09-08T08:17:27.647Z,23.52
2018-09-08T08:18:27.636Z,23.52
2018-09-08T08:19:27.677Z,23.82
2018-09-08T08:20:27.663Z,24.16
2018-09-08T08:21:27.603Z,24.41
2018-09-08T08:22:27.593Z,24.61
2018-09-08T08:23:27.581Z,24.77
2018-09-08T08:24:27.572Z,24.53
2018-09-08T08:25:27.578Z,24.99
2018-09-08T08:26:27.574Z,25.23
2018-09-08T08:27:27.539Z,25.38
2018-09-08T08:28:27.526Z,25.89
2018-09-08T08:29:27.516Z,26.36
2018-09-08T08:30:27.526Z,25.56
2018-09-08T08:31:27.544Z,25.08
2018-09-08T08:32:27.495Z,25.19
2018-09-08T08:33:27.491Z,25.08
2018-09-08T08:34:27.522Z,25.35
2018-09-08T08:35:27.469Z,25.79
2018-09-08T08:36:27.439Z,25.31
2018-09-08T08:37:27.482Z,24.68
2018-09-08T08:38:27.420Z,24.48
2018-09-08T08:39:27.438Z,24.66
2018-09-08T08:40:27.413Z,24.52
2018-09-08T08:41:27.386Z,23.82
2018-09-08T08:42:27.378Z,23.67
2018-09-08T08:43:27.372Z,23.35
2018-09-08T08:44:27.354Z,23.78
2018-09-08T08:45:27.359Z,23.25
2018-09-08T08:46:27.377Z,22.66
2018-09-08T08:47:27.327Z,22.66
2018-09-08T08:48:27.332Z,22.88
2018-09-08T08:49:27.332Z,23.47
2018-09-08T08:50:27.303Z,23.81
2018-09-08T08:51:27.298Z,23.99
2018-09-08T08:52:27.322Z,24.31
2018-09-08T08:53:27.325Z,24.67
2018-09-08T08:54:27.271Z,25.04
2018-09-08T08:55:27.247Z,25.23
2018-09-08T08:56:27.273Z,25.36
2018-09-08T08:57:27.235Z,25.72
2018-09-08T08:58:27.200Z,26.20
2018-09-08T08:59:27.190Z,26.53
2018-09-08T09:00:27.217Z,26.69
2018-09-08T09:01:27.253Z,26.79
2018-09-08T09:02:27.182Z,26.39
2018-09-08T09:03:27.148Z,26.21
2018-09-08T09:04:27.159Z,26.32
2018-09-08T09:05:27.150Z,25.75
2018-09-08T09:06:27.156Z,25.44
2018-09-08T09:07:27.183Z,25.60
2018-09-08T09:08:27.505Z,24.75
2018-09-08T09:09:27.101Z,24.84
2018-09-08T09:10:27.088Z,25.04
2018-09-08T09:11:27.079Z,24.77
2018-09-08T09:12:27.055Z,24.63
2018-09-08T09:13:27.150Z,24.92
2018-09-08T09:14:27.035Z,24.46
2018-09-08T09:15:27.452Z,24.67
2018-09-08T09:16:27.113Z,25.22
2018-09-08T09:17:27.012Z,25.59
2018-09-08T09:18:27.062Z,25.59
2018-09-08T09:19:27.077Z,25.56
2018-09-08T09:20:26.979Z,24.87
2018-09-08T09:21:26.963Z,24.71
2018-09-08T09:22:26.983Z,24.30
2018-09-08T09:23:26.958Z,24.45
2018-09-08T09:24:27.138Z,25.09
2018-09-08T09:25:26.941Z,25.19
2018-09-08T09:26:26.984Z,24.99
2018-09-08T09:27:26.900Z,24.64
2018-09-08T09:28:26.892Z,24.68
2018-09-08T09:29:26.879Z,24.67
2018-09-08T09:30:26.879Z,23.89
2018-09-08T09:31:26.856Z,23.71
2018-09-08T09:32:26.846Z,24.37
2018-09-08T09:33:26.837Z,25.07
2018-09-08T09:34:26.834Z,25.44
2018-09-08T09:35:26.828Z,24.64
2018-09-08T09:36:26.811Z,24.53
2018-09-08T09:37:26.929Z,24.52
2018-09-08T09:38:26.788Z,24.67
2018-09-08T09:39:26.776Z,25.31
2018-09-08T09:40:26.819Z,25.48
2018-09-08T09:41:26.743Z,25.82
2018-09-08T09:42:26.770Z,26.23
2018-09-08T09:43:26.753Z,26.03
2018-09-08T09:44:26.718Z,26.35
2018-09-08T09:45:26.728Z,26.35
2018-09-08T09:46:26.710Z,26.86
2018-09-08T09:47:26.687Z,27.12
2018-09-08T09:48:26.721Z,27.24
2018-09-08T09:49:26.689Z,27.52
2018-09-08T09:50:26.670Z,26.90
2018-09-08T09:51:26.646Z,26.87
2018-09-08T09:52:26.639Z,26.98
2018-09-08T09:53:26.696Z,25.66
2018-09-08T09:54:26.623Z,24.53
2018-09-08T09:55:26.619Z,24.53
2018-09-08T09:56:26.597Z,24.19
2018-09-08T09:57:26.591Z,24.30
2018-09-08T09:58:26.634Z,24.46
2018-09-08T09:59:26.559Z,25.04
2018-09-08T10:00:26.575Z,25.41
2018-09-08T10:01:26.736Z,25.57
2018-09-08T10:02:26.519Z,25.94
2018-09-08T10:03:26.516Z,25.71
2018-09-08T10:04:26.513Z,25.82
2018-09-08T10:05:26.530Z,26.49
2018-09-08T10:06:26.543Z,26.56
2018-09-08T10:07:26.476Z,26.75
2018-09-08T10:08:26.553Z,27.24
2018-09-08T10:09:26.446Z,27.30
2018-09-08T10:10:26.439Z,26.93
2018-09-08T10:11:26.505Z,27.12
2018-09-08T10:12:26.425Z,27.35
2018-09-08T10:13:26.411Z,27.38
2018-09-08T10:14:26.609Z,27.20
2018-09-08T10:15:26.383Z,26.88
2018-09-08T10:16:26.399Z,27.05
2018-09-08T10:17:26.363Z,27.18
2018-09-08T10:18:26.404Z,27.38
2018-09-08T10:19:26.344Z,27.59
2018-09-08T10:20:26.339Z,27.24
2018-09-08T10:21:26.336Z,27.39
2018-09-08T10:22:26.326Z,27.91
2018-09-08T10:23:26.421Z,27.86
2018-09-08T10:24:26.295Z,26.19
2018-09-08T10:25:26.279Z,25.29
2018-09-08T10:26:26.355Z,24.80
2018-09-08T10:27:26.271Z,24.49
2018-09-08T10:28:26.252Z,23.99
2018-09-08T10:29:26.245Z,23.96
2018-09-08T10:30:26.316Z,23.93
2018-09-08T10:31:26.259Z,23.92
2018-09-08T10:32:26.257Z,24.68
2018-09-08T10:33:26.217Z,25.30
2018-09-08T10:34:26.246Z,25.56
2018-09-08T10:35:26.181Z,25.93
2018-09-08T10:36:26.211Z,25.91
2018-09-08T10:37:26.220Z,26.11
2018-09-08T10:38:26.170Z,26.76
2018-09-08T10:39:26.165Z,27.42
2018-09-08T10:40:26.436Z,27.62
2018-09-08T10:41:26.136Z,28.01
2018-09-08T10:42:26.260Z,27.31
2018-09-08T10:43:26.126Z,27.02
2018-09-08T10:44:26.091Z,26.60
2018-09-08T10:45:26.140Z,25.83
2018-09-08T10:46:26.088Z,25.46
2018-09-08T10:47:26.119Z,25.67
2018-09-08T10:48:26.045Z,25.56
2018-09-08T10:49:26.305Z,25.05
2018-09-08T10:50:26.107Z,25.31
2018-09-08T10:51:26.027Z,25.64
2018-09-08T10:52:26.003Z,25.97
2018-09-08T10:53:25.994Z,26.23
2018-09-08T10:54:26.042Z,26.57
2018-09-08T10:55:25.995Z,27.12
2018-09-08T10:56:26.022Z,26.11
2018-09-08T10:57:25.955Z,26.35
2018-09-08T10:58:25.999Z,26.36
2018-09-08T10:59:25.962Z,26.65
2018-09-08T11:00:25.951Z,27.02
2018-09-08T11:01:26.015Z,27.34
2018-09-08T11:02:26.161Z,27.38
2018-09-08T11:03:25.894Z,27.25
2018-09-08T11:04:25.886Z,26.84
2018-09-08T11:05:25.872Z,26.65
2018-09-08T11:06:25.924Z,26.96
2018-09-08T11:07:25.861Z,27.33
2018-09-08T11:08:25.845Z,27.53
2018-09-08T11:09:25.831Z,27.49
2018-09-08T11:10:25.972Z,27.48
2018-09-08T11:11:25.825Z,27.80
2018-09-08T11:12:25.802Z,27.76
2018-09-08T11:13:25.844Z,27.87
2018-09-08T11:14:25.817Z,27.90
2018-09-08T11:15:25.807Z,27.96
2018-09-08T11:16:25.780Z,27.88
2018-09-08T11:17:25.747Z,27.38
2018-09-08T11:18:25.739Z,27.25
2018-09-08T11:19:25.745Z,27.63
2018-09-08T11:20:25.732Z,27.34
2018-09-08T11:21:25.793Z,27.50
2018-09-08T11:22:25.771Z,27.80
2018-09-08T11:23:25.687Z,27.50
2018-09-08T11:24:25.685Z,27.69
2018-09-08T11:25:25.675Z,27.80
2018-09-08T11:26:25.682Z,28.15
2018-09-08T11:27:25.651Z,28.02
2018-09-08T11:28:25.642Z,27.71
2018-09-08T11:29:25.669Z,27.63
2018-09-08T11:30:25.662Z,27.88
2018-09-08T11:31:25.620Z,28.18
2018-09-08T11:32:25.828Z,27.96
2018-09-08T11:33:25.629Z,28.02
2018-09-08T11:34:25.616Z,27.81
2018-09-08T11:35:25.595Z,27.93
2018-09-08T11:36:25.564Z,27.39
2018-09-08T11:37:25.605Z,27.02
2018-09-08T11:38:25.826Z,26.96
2018-09-08T11:39:25.527Z,26.38
2018-09-08T11:40:25.517Z,26.38
2018-09-08T11:41:25.508Z,26.41
2018-09-08T11:42:25.529Z,26.76
2018-09-08T11:43:25.497Z,27.08
2018-09-08T11:44:25.503Z,27.39
2018-09-08T11:45:25.538Z,26.59
2018-09-08T11:46:25.454Z,26.23
2018-09-08T11:47:25.452Z,26.47
2018-09-08T11:48:25.439Z,26.41
2018-09-08T11:49:25.473Z,26.29
2018-09-08T11:50:25.424Z,26.42
2018-09-08T11:51:25.422Z,26.46
2018-09-08T11:52:25.405Z,26.84
2018-09-08T11:53:25.391Z,26.65
2018-09-08T11:54:25.394Z,26.39
2018-09-08T11:55:25.414Z,26.71
2018-09-08T11:56:25.344Z,26.98
2018-09-08T11:57:25.356Z,26.93
2018-09-08T11:58:25.320Z,26.57
2018-09-08T11:59:25.336Z,26.35
2018-09-08T12:00:25.301Z,26.31
2018-09-08T12:01:25.425Z,25.97
2018-09-08T12:02:25.289Z,25.69
2018-09-08T12:03:25.265Z,25.76
2018-09-08T12:04:25.263Z,25.93
2018-09-08T12:05:25.313Z,26.00
2018-09-08T12:06:25.274Z,25.97
2018-09-08T12:07:25.257Z,25.69
2018-09-08T12:08:25.215Z,25.35
2018-09-08T12:09:25.212Z,25.24
2018-09-08T12:10:25.203Z,24.66
2018-09-08T12:11:25.281Z,24.34
2018-09-08T12:12:25.226Z,24.33
2018-09-08T12:13:25.192Z,24.51
2018-09-08T12:14:25.470Z,24.63
2018-09-08T12:15:25.157Z,24.82
2018-09-08T12:16:25.144Z,24.61
2018-09-08T12:17:25.143Z,24.55
2018-09-08T12:18:25.122Z,24.44
2018-09-08T12:19:25.097Z,24.19
2018-09-08T12:20:25.102Z,24.31
2018-09-08T12:21:25.109Z,24.19
2018-09-08T12:22:25.078Z,23.89
2018-09-08T12:23:25.093Z,23.89
2018-09-08T12:24:25.107Z,23.94
2018-09-08T12:25:25.034Z,24.18
2018-09-08T12:26:25.025Z,24.34
2018-09-08T12:27:25.040Z,24.53
2018-09-08T12:28:25.013Z,24.64
2018-09-08T12:29:25.003Z,24.93
2018-09-08T12:30:25.056Z,24.98
2018-09-08T12:31:25.023Z,25.09
2018-09-08T12:32:25.006Z,25.31
2018-09-08T12:33:24.961Z,25.29
2018-09-08T12:34:24.947Z,25.16
2018-09-08T12:35:24.931Z,25.24
2018-09-08T12:36:24.927Z,25.48
2018-09-08T12:37:24.927Z,25.14
2018-09-08T12:38:24.914Z,25.09
2018-09-08T12:39:24.892Z,25.09
2018-09-08T12:40:24.932Z,25.12
2018-09-08T12:41:24.870Z,25.04
2018-09-08T12:42:24.873Z,24.89
2018-09-08T12:43:24.855Z,24.68
2018-09-08T12:44:24.831Z,24.71
2018-09-08T12:45:24.828Z,24.49
2018-09-08T12:46:24.978Z,24.53
2018-09-08T12:47:24.879Z,24.27
2018-09-08T12:48:24.851Z,24.08
2018-09-08T12:49:24.772Z,23.87
2018-09-08T12:50:24.781Z,23.69
2018-09-08T12:51:24.775Z,23.57
2018-09-08T12:52:24.751Z,23.47